Flight Track Log - Related Links

Times and Time Zones

All times are in EDT time to prevent confusion due to time zone crossing. See the CSN8315 flight status page for this flight to view local times or setup timezone preferences in your user account.

Time Position Orientation Groundspeed Altitude Reporting Facility
EDT Latitude Longitude Course Direction KTS MPH feet Rate Location/Type
Sun 09:46:00 PM 24.0255 114.6348 41° Northeast  Level Estimated
Sun 09:47:00 PM 24.1367 114.7408 41° Northeast  Level Estimated
Sun 09:48:00 PM 24.2478 114.8470 41° Northeast  Level Estimated
Sun 09:49:00 PM 24.3589 114.9534 41° Northeast  Level Estimated
Sun 09:50:00 PM 24.4699 115.0599 41° Northeast  Level Estimated
Sun 09:51:00 PM 24.5808 115.1667 41° Northeast  Level Estimated
Sun 09:52:00 PM 24.6916 115.2737 41° Northeast  Level Estimated
Sun 09:53:00 PM 24.8024 115.3808 41° Northeast  Level Estimated
Sun 09:54:00 PM 24.9131 115.4881 41° Northeast  Level Estimated
Sun 09:55:00 PM 25.0237 115.5956 41° Northeast  Level Estimated
Sun 09:56:00 PM 25.1342 115.7034 41° Northeast  Level Estimated
Sun 09:57:00 PM 25.2446 115.8113 41° Northeast  Level Estimated
Sun 09:58:00 PM 25.3550 115.9194 42° Northeast  Level Estimated
Sun 09:59:00 PM 25.4653 116.0277 42° Northeast  Level Estimated
Sun 10:00:00 PM 25.5755 116.1362 42° Northeast  Level Estimated
Sun 10:01:00 PM 25.6856 116.2449 42° Northeast  Level Estimated
Sun 10:02:00 PM 25.7957 116.3538 42° Northeast  Level Estimated
Sun 10:03:00 PM 25.9057 116.4629 42° Northeast  Level Estimated
Sun 10:04:00 PM 26.0156 116.5723 42° Northeast  Level Estimated
Sun 10:05:00 PM 26.1254 116.6818 42° Northeast  Level Estimated
Sun 10:06:00 PM 26.2351 116.7915 42° Northeast  Level Estimated
Sun 10:07:00 PM 26.3447 116.9014 42° Northeast  Level Estimated
Sun 10:08:00 PM 26.4543 117.0116 42° Northeast  Level Estimated
Sun 10:09:00 PM 26.5637 117.1219 42° Northeast  Level Estimated
Sun 10:10:00 PM 26.6731 117.2325 42° Northeast  Level Estimated
Sun 10:11:00 PM 26.7824 117.3432 42° Northeast  Level Estimated
Sun 10:12:00 PM 26.8916 117.4542 42° Northeast  Level Estimated
Sun 10:13:00 PM 27.0008 117.5654 42° Northeast  Level Estimated
Sun 10:14:00 PM 27.1098 117.6769 42° Northeast  Level Estimated
Sun 10:15:00 PM 27.2188 117.7885 42° Northeast  Level Estimated
Sun 10:16:00 PM 27.3276 117.9004 42° Northeast  Level Estimated
Sun 10:17:00 PM 27.4364 118.0124 42° Northeast  Level Estimated
Sun 10:18:00 PM 27.5451 118.1247 42° Northeast  Level Estimated
Sun 10:19:00 PM 27.6537 118.2372 43° Northeast  Level Estimated
Sun 10:20:00 PM 27.7622 118.3500 43° Northeast  Level Estimated
Sun 10:21:00 PM 27.8706 118.4629 43° Northeast  Level Estimated
Sun 10:22:00 PM 27.9789 118.5761 43° Northeast  Level Estimated
Sun 10:23:00 PM 28.0871 118.6895 43° Northeast  Level Estimated
Sun 10:24:00 PM 28.1953 118.8032 43° Northeast  Level Estimated
Sun 10:25:00 PM 28.3033 118.9171 43° Northeast  Level Estimated
Sun 10:26:00 PM 28.4112 119.0312 43° Northeast  Level Estimated
Sun 10:27:00 PM 28.5191 119.1455 43° Northeast  Level Estimated
Sun 10:28:00 PM 28.6268 119.2601 43° Northeast  Level Estimated
Sun 10:29:00 PM 28.7345 119.3749 43° Northeast  Level Estimated
Sun 10:30:00 PM 28.8421 119.4900 43° Northeast  Level Estimated
Sun 10:31:00 PM 28.9495 119.6052 43° Northeast  Level Estimated
Sun 10:32:00 PM 29.0569 119.7208 43° Northeast  Level Estimated
Sun 10:33:00 PM 29.1641 119.8365 43° Northeast  Level Estimated
Sun 10:34:00 PM 29.2713 119.9525 43° Northeast  Level Estimated
Sun 10:35:00 PM 29.3447 120.0322 43° Northeast  Level Estimated
Sun 10:36:00 PM 29.3447 120.0322 North  Level Estimated
Sun 10:37:00 PM 29.3447 120.0322 North  Level Estimated
Sun 10:38:00 PM 29.3447 120.0322 North  Level Estimated
Sun 10:39:00 PM 29.3447 120.0322 North  Level Estimated
Sun 10:40:00 PM 29.3447 120.0322 North  Level Estimated
Sun 10:41:00 PM 29.3447 120.0322 North  Level Estimated
Sun 10:42:00 PM 29.3447 120.0322 North  Level Estimated
Sun 10:43:00 PM 29.3447 120.0322 North  Level Estimated
Sun 10:44:00 PM 29.3447 120.0322 North  Level Estimated
Sun 10:45:00 PM 29.3447 120.0322 North  Level Estimated
Sun 10:46:00 PM 29.3447 120.0322 North  Level Estimated
Sun 10:47:00 PM 29.3447 120.0322 North  Level Estimated
Sun 10:48:00 PM 29.3447 120.0322 North  Level Estimated
Sun 10:49:00 PM 29.3447 120.0322 North  Level Estimated
Sun 10:50:00 PM 29.3447 120.0322 North  Level Estimated
Sun 10:51:00 PM 29.3447 120.0322 North  Level Estimated
Sun 10:52:00 PM 29.3447 120.0322 North  Level Estimated
Sun 10:53:00 PM 29.3447 120.0322 North  Level Estimated
Sun 10:54:00 PM 29.3447 120.0322 North  Level Estimated
Sun 10:55:00 PM 29.3447 120.0322 North  Level Estimated
Sun 10:56:00 PM 29.3447 120.0322 North  Level Estimated

Login

Don't have an account? Register now (free) for customized features, flight alerts, and more!